sensor_id;sensor_type;location;lat;lon;timestamp;P1;durP1;ratioP1;P2;durP2;ratioP2
70169;SDS011;57543;45.442;9.212;2023-08-21T00:01:23;13.13;;;8.73;;
70169;SDS011;57543;45.442;9.212;2023-08-21T00:04:26;12.10;;;8.25;;
70169;SDS011;57543;45.442;9.212;2023-08-21T00:07:29;11.10;;;8.30;;
70169;SDS011;57543;45.442;9.212;2023-08-21T00:10:33;11.88;;;8.63;;
70169;SDS011;57543;45.442;9.212;2023-08-21T00:13:40;11.30;;;8.95;;
70169;SDS011;57543;45.442;9.212;2023-08-21T00:16:50;11.75;;;8.60;;
70169;SDS011;57543;45.442;9.212;2023-08-21T00:19:54;11.75;;;8.90;;
70169;SDS011;57543;45.442;9.212;2023-08-21T00:22:57;11.43;;;8.90;;
70169;SDS011;57543;45.442;9.212;2023-08-21T00:26:00;11.80;;;8.90;;
70169;SDS011;57543;45.442;9.212;2023-08-21T00:29:03;11.48;;;8.70;;
70169;SDS011;57543;45.442;9.212;2023-08-21T00:32:09;14.23;;;9.43;;
70169;SDS011;57543;45.442;9.212;2023-08-21T00:35:15;12.13;;;9.13;;
70169;SDS011;57543;45.442;9.212;2023-08-21T00:38:20;12.25;;;9.23;;
70169;SDS011;57543;45.442;9.212;2023-08-21T00:41:24;13.52;;;9.23;;
70169;SDS011;57543;45.442;9.212;2023-08-21T00:44:27;11.93;;;8.93;;
70169;SDS011;57543;45.442;9.212;2023-08-21T00:47:31;13.63;;;10.30;;
70169;SDS011;57543;45.442;9.212;2023-08-21T00:50:35;13.93;;;9.43;;
70169;SDS011;57543;45.442;9.212;2023-08-21T00:53:39;12.77;;;9.55;;
70169;SDS011;57543;45.442;9.212;2023-08-21T00:56:45;14.47;;;10.40;;
70169;SDS011;57543;45.442;9.212;2023-08-21T00:59:49;11.88;;;9.48;;
70169;SDS011;57543;45.442;9.212;2023-08-21T01:02:53;13.23;;;9.63;;
70169;SDS011;57543;45.442;9.212;2023-08-21T01:05:56;13.10;;;9.45;;
70169;SDS011;57543;45.442;9.212;2023-08-21T01:09:24;11.45;;;9.75;;
70169;SDS011;57543;45.442;9.212;2023-08-21T01:12:35;12.37;;;10.40;;
70169;SDS011;57543;45.442;9.212;2023-08-21T01:15:48;14.48;;;10.65;;
70169;SDS011;57543;45.442;9.212;2023-08-21T01:18:53;11.98;;;9.65;;
70169;SDS011;57543;45.442;9.212;2023-08-21T01:21:58;11.55;;;9.70;;
70169;SDS011;57543;45.442;9.212;2023-08-21T01:25:04;13.85;;;10.38;;
70169;SDS011;57543;45.442;9.212;2023-08-21T01:28:08;13.07;;;9.93;;
70169;SDS011;57543;45.442;9.212;2023-08-21T01:31:17;12.18;;;10.32;;
70169;SDS011;57543;45.442;9.212;2023-08-21T01:34:27;12.50;;;9.82;;
70169;SDS011;57543;45.442;9.212;2023-08-21T01:37:33;12.85;;;9.98;;
70169;SDS011;57543;45.442;9.212;2023-08-21T01:40:37;11.60;;;9.40;;
70169;SDS011;57543;45.442;9.212;2023-08-21T01:43:41;11.43;;;9.02;;
70169;SDS011;57543;45.442;9.212;2023-08-21T01:46:45;12.35;;;10.00;;
70169;SDS011;57543;45.442;9.212;2023-08-21T01:49:49;13.27;;;9.77;;
70169;SDS011;57543;45.442;9.212;2023-08-21T01:52:55;13.30;;;10.27;;
70169;SDS011;57543;45.442;9.212;2023-08-21T01:55:59;13.52;;;10.13;;
70169;SDS011;57543;45.442;9.212;2023-08-21T01:59:06;13.73;;;10.67;;
70169;SDS011;57543;45.442;9.212;2023-08-21T02:02:12;13.45;;;9.88;;
70169;SDS011;57543;45.442;9.212;2023-08-21T02:05:16;14.18;;;10.57;;
70169;SDS011;57543;45.442;9.212;2023-08-21T02:08:19;13.13;;;10.38;;
70169;SDS011;57543;45.442;9.212;2023-08-21T02:11:23;13.55;;;9.68;;
70169;SDS011;57543;45.442;9.212;2023-08-21T02:14:29;14.40;;;10.73;;
70169;SDS011;57543;45.442;9.212;2023-08-21T02:17:32;12.77;;;9.57;;
70169;SDS011;57543;45.442;9.212;2023-08-21T02:20:36;14.57;;;9.95;;
70169;SDS011;57543;45.442;9.212;2023-08-21T02:23:40;13.68;;;10.25;;
70169;SDS011;57543;45.442;9.212;2023-08-21T02:26:43;12.70;;;9.25;;
70169;SDS011;57543;45.442;9.212;2023-08-21T02:29:49;16.63;;;10.10;;
70169;SDS011;57543;45.442;9.212;2023-08-21T02:32:52;11.75;;;9.63;;
70169;SDS011;57543;45.442;9.212;2023-08-21T02:35:56;12.43;;;9.43;;
70169;SDS011;57543;45.442;9.212;2023-08-21T02:39:00;12.55;;;9.40;;
70169;SDS011;57543;45.442;9.212;2023-08-21T02:42:04;10.93;;;9.20;;
70169;SDS011;57543;45.442;9.212;2023-08-21T02:45:08;12.83;;;9.73;;
70169;SDS011;57543;45.442;9.212;2023-08-21T02:48:14;14.05;;;9.93;;
70169;SDS011;57543;45.442;9.212;2023-08-21T02:51:18;12.38;;;9.20;;
70169;SDS011;57543;45.442;9.212;2023-08-21T02:54:22;12.80;;;9.75;;
70169;SDS011;57543;45.442;9.212;2023-08-21T02:57:26;13.18;;;9.57;;
70169;SDS011;57543;45.442;9.212;2023-08-21T03:00:30;13.50;;;9.53;;
70169;SDS011;57543;45.442;9.212;2023-08-21T03:03:34;12.15;;;10.25;;
70169;SDS011;57543;45.442;9.212;2023-08-21T03:06:39;13.13;;;10.00;;
70169;SDS011;57543;45.442;9.212;2023-08-21T03:09:42;13.23;;;10.13;;
70169;SDS011;57543;45.442;9.212;2023-08-21T03:12:48;12.48;;;9.38;;
70169;SDS011;57543;45.442;9.212;2023-08-21T03:15:52;13.00;;;10.33;;
70169;SDS011;57543;45.442;9.212;2023-08-21T03:18:56;12.18;;;9.50;;
70169;SDS011;57543;45.442;9.212;2023-08-21T03:22:05;13.45;;;9.98;;
70169;SDS011;57543;45.442;9.212;2023-08-21T03:25:10;12.13;;;9.93;;
70169;SDS011;57543;45.442;9.212;2023-08-21T03:28:14;15.93;;;10.50;;
70169;SDS011;57543;45.442;9.212;2023-08-21T03:31:17;12.32;;;9.45;;
70169;SDS011;57543;45.442;9.212;2023-08-21T03:34:21;13.50;;;9.45;;
70169;SDS011;57543;45.442;9.212;2023-08-21T03:37:26;13.05;;;9.45;;
70169;SDS011;57543;45.442;9.212;2023-08-21T03:40:30;12.10;;;9.52;;
70169;SDS011;57543;45.442;9.212;2023-08-21T03:43:34;16.10;;;10.38;;
70169;SDS011;57543;45.442;9.212;2023-08-21T03:46:40;13.37;;;10.13;;
70169;SDS011;57543;45.442;9.212;2023-08-21T03:49:44;13.45;;;9.40;;
70169;SDS011;57543;45.442;9.212;2023-08-21T03:52:48;12.13;;;9.73;;
70169;SDS011;57543;45.442;9.212;2023-08-21T03:55:52;14.38;;;10.60;;
70169;SDS011;57543;45.442;9.212;2023-08-21T03:58:55;12.80;;;9.27;;
70169;SDS011;57543;45.442;9.212;2023-08-21T04:02:00;12.50;;;8.98;;
70169;SDS011;57543;45.442;9.212;2023-08-21T04:05:03;12.45;;;9.45;;
70169;SDS011;57543;45.442;9.212;2023-08-21T04:08:07;12.68;;;9.95;;
70169;SDS011;57543;45.442;9.212;2023-08-21T04:11:11;13.20;;;9.55;;
70169;SDS011;57543;45.442;9.212;2023-08-21T04:14:15;12.70;;;10.13;;
70169;SDS011;57543;45.442;9.212;2023-08-21T04:17:21;13.60;;;10.20;;
70169;SDS011;57543;45.442;9.212;2023-08-21T04:20:25;15.63;;;9.98;;
70169;SDS011;57543;45.442;9.212;2023-08-21T04:23:28;14.35;;;10.40;;
70169;SDS011;57543;45.442;9.212;2023-08-21T04:26:32;13.82;;;10.73;;
70169;SDS011;57543;45.442;9.212;2023-08-21T04:29:35;13.48;;;10.75;;
70169;SDS011;57543;45.442;9.212;2023-08-21T04:32:39;14.30;;;10.57;;
70169;SDS011;57543;45.442;9.212;2023-08-21T04:35:45;17.55;;;11.15;;
70169;SDS011;57543;45.442;9.212;2023-08-21T04:38:48;12.57;;;10.77;;
70169;SDS011;57543;45.442;9.212;2023-08-21T04:41:52;14.95;;;10.90;;
70169;SDS011;57543;45.442;9.212;2023-08-21T04:44:56;15.93;;;10.10;;
70169;SDS011;57543;45.442;9.212;2023-08-21T04:48:00;15.17;;;10.70;;
70169;SDS011;57543;45.442;9.212;2023-08-21T04:51:04;15.10;;;10.07;;
70169;SDS011;57543;45.442;9.212;2023-08-21T04:54:08;13.40;;;10.05;;
70169;SDS011;57543;45.442;9.212;2023-08-21T04:57:11;13.13;;;10.30;;
70169;SDS011;57543;45.442;9.212;2023-08-21T05:00:15;14.60;;;10.35;;
70169;SDS011;57543;45.442;9.212;2023-08-21T05:03:20;17.20;;;11.25;;
70169;SDS011;57543;45.442;9.212;2023-08-21T05:06:24;13.10;;;10.07;;
70169;SDS011;57543;45.442;9.212;2023-08-21T05:09:28;13.63;;;10.30;;
70169;SDS011;57543;45.442;9.212;2023-08-21T05:12:32;14.63;;;10.35;;
70169;SDS011;57543;45.442;9.212;2023-08-21T05:15:36;15.52;;;10.85;;
70169;SDS011;57543;45.442;9.212;2023-08-21T05:18:40;15.00;;;10.47;;
70169;SDS011;57543;45.442;9.212;2023-08-21T05:21:45;13.15;;;10.70;;
70169;SDS011;57543;45.442;9.212;2023-08-21T05:24:49;13.65;;;10.70;;
70169;SDS011;57543;45.442;9.212;2023-08-21T05:27:53;14.85;;;10.38;;
70169;SDS011;57543;45.442;9.212;2023-08-21T05:30:56;14.60;;;9.73;;
70169;SDS011;57543;45.442;9.212;2023-08-21T05:34:00;13.70;;;9.80;;
70169;SDS011;57543;45.442;9.212;2023-08-21T05:37:04;14.40;;;10.25;;
70169;SDS011;57543;45.442;9.212;2023-08-21T05:40:08;13.07;;;10.10;;
70169;SDS011;57543;45.442;9.212;2023-08-21T05:43:12;13.20;;;10.48;;
70169;SDS011;57543;45.442;9.212;2023-08-21T05:46:19;13.35;;;9.88;;
70169;SDS011;57543;45.442;9.212;2023-08-21T05:49:23;16.47;;;10.07;;
70169;SDS011;57543;45.442;9.212;2023-08-21T05:52:27;16.67;;;10.65;;
70169;SDS011;57543;45.442;9.212;2023-08-21T05:55:30;15.10;;;10.70;;
70169;SDS011;57543;45.442;9.212;2023-08-21T05:58:38;15.50;;;10.55;;
70169;SDS011;57543;45.442;9.212;2023-08-21T06:01:41;13.70;;;10.20;;
70169;SDS011;57543;45.442;9.212;2023-08-21T06:04:45;12.40;;;9.60;;
70169;SDS011;57543;45.442;9.212;2023-08-21T06:07:49;14.60;;;10.00;;
70169;SDS011;57543;45.442;9.212;2023-08-21T06:10:54;12.57;;;10.15;;
70169;SDS011;57543;45.442;9.212;2023-08-21T06:13:58;14.50;;;9.75;;
70169;SDS011;57543;45.442;9.212;2023-08-21T06:17:02;13.75;;;9.80;;
70169;SDS011;57543;45.442;9.212;2023-08-21T06:20:07;16.83;;;11.43;;
70169;SDS011;57543;45.442;9.212;2023-08-21T06:23:14;13.93;;;9.95;;
70169;SDS011;57543;45.442;9.212;2023-08-21T06:26:18;15.95;;;11.25;;
70169;SDS011;57543;45.442;9.212;2023-08-21T06:29:21;15.07;;;10.90;;
70169;SDS011;57543;45.442;9.212;2023-08-21T06:32:26;17.83;;;11.52;;
70169;SDS011;57543;45.442;9.212;2023-08-21T06:35:29;21.03;;;12.30;;
70169;SDS011;57543;45.442;9.212;2023-08-21T06:38:33;22.55;;;12.27;;
70169;SDS011;57543;45.442;9.212;2023-08-21T06:41:37;16.77;;;11.45;;
70169;SDS011;57543;45.442;9.212;2023-08-21T06:44:40;18.52;;;12.85;;
70169;SDS011;57543;45.442;9.212;2023-08-21T06:47:44;15.88;;;11.93;;
70169;SDS011;57543;45.442;9.212;2023-08-21T06:50:48;15.17;;;11.70;;
70169;SDS011;57543;45.442;9.212;2023-08-21T06:53:52;17.80;;;12.75;;
70169;SDS011;57543;45.442;9.212;2023-08-21T06:56:56;17.77;;;12.15;;
70169;SDS011;57543;45.442;9.212;2023-08-21T07:00:01;16.25;;;12.10;;
70169;SDS011;57543;45.442;9.212;2023-08-21T07:03:07;16.85;;;11.27;;
70169;SDS011;57543;45.442;9.212;2023-08-21T07:06:11;19.43;;;12.87;;
70169;SDS011;57543;45.442;9.212;2023-08-21T07:09:14;20.65;;;13.38;;
70169;SDS011;57543;45.442;9.212;2023-08-21T07:12:18;15.38;;;10.95;;
70169;SDS011;57543;45.442;9.212;2023-08-21T07:15:21;14.82;;;11.43;;
70169;SDS011;57543;45.442;9.212;2023-08-21T07:18:25;17.58;;;12.38;;
70169;SDS011;57543;45.442;9.212;2023-08-21T07:21:29;15.55;;;11.07;;
70169;SDS011;57543;45.442;9.212;2023-08-21T07:24:32;15.93;;;10.93;;
70169;SDS011;57543;45.442;9.212;2023-08-21T07:27:35;17.52;;;11.30;;
70169;SDS011;57543;45.442;9.212;2023-08-21T07:30:39;16.55;;;10.80;;
70169;SDS011;57543;45.442;9.212;2023-08-21T07:33:44;16.80;;;11.13;;
70169;SDS011;57543;45.442;9.212;2023-08-21T07:36:49;18.27;;;11.13;;
70169;SDS011;57543;45.442;9.212;2023-08-21T07:39:56;13.30;;;9.98;;
70169;SDS011;57543;45.442;9.212;2023-08-21T07:43:00;13.50;;;10.82;;
70169;SDS011;57543;45.442;9.212;2023-08-21T07:46:04;12.80;;;9.32;;
70169;SDS011;57543;45.442;9.212;2023-08-21T07:49:09;13.07;;;9.13;;
70169;SDS011;57543;45.442;9.212;2023-08-21T07:52:12;14.98;;;9.85;;
70169;SDS011;57543;45.442;9.212;2023-08-21T07:55:16;13.60;;;10.23;;
70169;SDS011;57543;45.442;9.212;2023-08-21T07:58:20;11.35;;;9.25;;
70169;SDS011;57543;45.442;9.212;2023-08-21T08:01:23;14.73;;;8.77;;
70169;SDS011;57543;45.442;9.212;2023-08-21T08:04:27;16.00;;;10.18;;
70169;SDS011;57543;45.442;9.212;2023-08-21T08:07:31;14.50;;;10.03;;
70169;SDS011;57543;45.442;9.212;2023-08-21T08:10:39;13.55;;;9.98;;
70169;SDS011;57543;45.442;9.212;2023-08-21T08:13:43;11.40;;;9.30;;
70169;SDS011;57543;45.442;9.212;2023-08-21T08:16:47;12.40;;;9.25;;
70169;SDS011;57543;45.442;9.212;2023-08-21T08:19:51;16.38;;;10.00;;
70169;SDS011;57543;45.442;9.212;2023-08-21T08:22:55;16.97;;;9.80;;
70169;SDS011;57543;45.442;9.212;2023-08-21T08:25:59;12.90;;;9.05;;
70169;SDS011;57543;45.442;9.212;2023-08-21T08:29:03;13.65;;;9.27;;
70169;SDS011;57543;45.442;9.212;2023-08-21T08:32:06;15.27;;;8.98;;
70169;SDS011;57543;45.442;9.212;2023-08-21T08:35:11;15.63;;;9.32;;
70169;SDS011;57543;45.442;9.212;2023-08-21T08:38:16;14.70;;;9.25;;
70169;SDS011;57543;45.442;9.212;2023-08-21T08:41:24;11.50;;;8.75;;
70169;SDS011;57543;45.442;9.212;2023-08-21T08:44:31;12.95;;;9.00;;
70169;SDS011;57543;45.442;9.212;2023-08-21T08:47:39;13.57;;;9.43;;
70169;SDS011;57543;45.442;9.212;2023-08-21T08:50:43;13.80;;;9.05;;
70169;SDS011;57543;45.442;9.212;2023-08-21T08:53:48;12.00;;;9.07;;
70169;SDS011;57543;45.442;9.212;2023-08-21T08:56:52;13.02;;;9.00;;
70169;SDS011;57543;45.442;9.212;2023-08-21T08:59:57;12.82;;;9.73;;
70169;SDS011;57543;45.442;9.212;2023-08-21T09:03:01;11.40;;;9.02;;
70169;SDS011;57543;45.442;9.212;2023-08-21T09:06:06;13.45;;;9.18;;
70169;SDS011;57543;45.442;9.212;2023-08-21T09:09:09;11.30;;;8.33;;
70169;SDS011;57543;45.442;9.212;2023-08-21T09:12:14;12.50;;;9.85;;
70169;SDS011;57543;45.442;9.212;2023-08-21T09:15:18;12.02;;;9.60;;
70169;SDS011;57543;45.442;9.212;2023-08-21T09:18:22;12.02;;;9.10;;
70169;SDS011;57543;45.442;9.212;2023-08-21T09:21:26;13.07;;;9.68;;
70169;SDS011;57543;45.442;9.212;2023-08-21T09:24:31;17.37;;;10.40;;
70169;SDS011;57543;45.442;9.212;2023-08-21T09:27:35;17.52;;;12.20;;
70169;SDS011;57543;45.442;9.212;2023-08-21T09:30:45;12.85;;;10.50;;
70169;SDS011;57543;45.442;9.212;2023-08-21T09:33:55;14.10;;;10.32;;
70169;SDS011;57543;45.442;9.212;2023-08-21T09:37:00;14.63;;;10.43;;
70169;SDS011;57543;45.442;9.212;2023-08-21T09:40:04;13.25;;;10.15;;
70169;SDS011;57543;45.442;9.212;2023-08-21T09:43:14;11.55;;;9.68;;
70169;SDS011;57543;45.442;9.212;2023-08-21T09:46:25;12.85;;;10.27;;
70169;SDS011;57543;45.442;9.212;2023-08-21T09:49:30;14.40;;;10.07;;
70169;SDS011;57543;45.442;9.212;2023-08-21T09:52:35;12.77;;;9.57;;
70169;SDS011;57543;45.442;9.212;2023-08-21T09:55:58;12.00;;;9.90;;
70169;SDS011;57543;45.442;9.212;2023-08-21T09:59:06;13.50;;;10.05;;
70169;SDS011;57543;45.442;9.212;2023-08-21T10:02:11;11.73;;;9.73;;
70169;SDS011;57543;45.442;9.212;2023-08-21T10:05:16;13.68;;;10.05;;
70169;SDS011;57543;45.442;9.212;2023-08-21T10:08:24;14.63;;;10.02;;
70169;SDS011;57543;45.442;9.212;2023-08-21T10:11:29;12.40;;;10.20;;
70169;SDS011;57543;45.442;9.212;2023-08-21T10:14:33;13.52;;;9.82;;
70169;SDS011;57543;45.442;9.212;2023-08-21T10:17:37;13.40;;;10.70;;
70169;SDS011;57543;45.442;9.212;2023-08-21T10:20:41;14.05;;;10.05;;
70169;SDS011;57543;45.442;9.212;2023-08-21T10:23:48;12.50;;;10.07;;
70169;SDS011;57543;45.442;9.212;2023-08-21T10:26:55;13.67;;;9.73;;
70169;SDS011;57543;45.442;9.212;2023-08-21T10:30:06;11.45;;;9.38;;
70169;SDS011;57543;45.442;9.212;2023-08-21T10:33:15;12.13;;;9.70;;
70169;SDS011;57543;45.442;9.212;2023-08-21T10:39:55;12.02;;;9.77;;
70169;SDS011;57543;45.442;9.212;2023-08-21T10:43:02;13.40;;;9.73;;
70169;SDS011;57543;45.442;9.212;2023-08-21T10:46:06;13.77;;;9.73;;
70169;SDS011;57543;45.442;9.212;2023-08-21T10:49:10;14.35;;;10.55;;
70169;SDS011;57543;45.442;9.212;2023-08-21T10:52:15;12.13;;;9.60;;
70169;SDS011;57543;45.442;9.212;2023-08-21T10:55:27;12.45;;;9.75;;
70169;SDS011;57543;45.442;9.212;2023-08-21T10:58:42;11.65;;;10.10;;
70169;SDS011;57543;45.442;9.212;2023-08-21T11:01:46;11.23;;;9.52;;
70169;SDS011;57543;45.442;9.212;2023-08-21T11:04:50;13.82;;;9.40;;
70169;SDS011;57543;45.442;9.212;2023-08-21T11:07:54;13.43;;;10.23;;
70169;SDS011;57543;45.442;9.212;2023-08-21T11:10:57;13.35;;;9.52;;
70169;SDS011;57543;45.442;9.212;2023-08-21T11:14:02;14.23;;;9.93;;
70169;SDS011;57543;45.442;9.212;2023-08-21T11:17:06;11.70;;;10.27;;
70169;SDS011;57543;45.442;9.212;2023-08-21T11:20:11;10.63;;;9.52;;
70169;SDS011;57543;45.442;9.212;2023-08-21T11:23:14;12.23;;;9.77;;
70169;SDS011;57543;45.442;9.212;2023-08-21T11:26:18;12.10;;;10.32;;
70169;SDS011;57543;45.442;9.212;2023-08-21T11:29:21;13.20;;;9.90;;
70169;SDS011;57543;45.442;9.212;2023-08-21T11:32:24;12.60;;;9.70;;
70169;SDS011;57543;45.442;9.212;2023-08-21T11:35:28;12.75;;;9.55;;
70169;SDS011;57543;45.442;9.212;2023-08-21T11:38:31;11.90;;;8.80;;
70169;SDS011;57543;45.442;9.212;2023-08-21T11:41:54;9.90;;;8.63;;
70169;SDS011;57543;45.442;9.212;2023-08-21T11:45:00;11.45;;;8.70;;
70169;SDS011;57543;45.442;9.212;2023-08-21T11:48:06;11.07;;;8.48;;
70169;SDS011;57543;45.442;9.212;2023-08-21T11:51:10;10.70;;;8.23;;
70169;SDS011;57543;45.442;9.212;2023-08-21T11:54:16;10.52;;;8.65;;
70169;SDS011;57543;45.442;9.212;2023-08-21T11:57:21;11.95;;;8.90;;
70169;SDS011;57543;45.442;9.212;2023-08-21T12:00:28;12.37;;;9.30;;
70169;SDS011;57543;45.442;9.212;2023-08-21T12:03:37;10.77;;;9.00;;
70169;SDS011;57543;45.442;9.212;2023-08-21T12:06:45;12.43;;;8.70;;
70169;SDS011;57543;45.442;9.212;2023-08-21T12:09:49;9.50;;;8.00;;
70169;SDS011;57543;45.442;9.212;2023-08-21T12:12:53;10.95;;;8.63;;
70169;SDS011;57543;45.442;9.212;2023-08-21T12:15:56;9.23;;;8.20;;
70169;SDS011;57543;45.442;9.212;2023-08-21T12:19:00;11.05;;;8.52;;
70169;SDS011;57543;45.442;9.212;2023-08-21T12:22:05;10.90;;;7.93;;
70169;SDS011;57543;45.442;9.212;2023-08-21T12:25:09;10.82;;;8.15;;
70169;SDS011;57543;45.442;9.212;2023-08-21T12:28:13;9.85;;;7.88;;
70169;SDS011;57543;45.442;9.212;2023-08-21T12:31:19;10.17;;;8.00;;
70169;SDS011;57543;45.442;9.212;2023-08-21T12:34:22;11.05;;;8.15;;
70169;SDS011;57543;45.442;9.212;2023-08-21T12:37:26;10.73;;;8.45;;
70169;SDS011;57543;45.442;9.212;2023-08-21T12:40:29;8.82;;;7.70;;
70169;SDS011;57543;45.442;9.212;2023-08-21T12:43:33;9.85;;;7.85;;
70169;SDS011;57543;45.442;9.212;2023-08-21T12:46:39;11.48;;;8.50;;
70169;SDS011;57543;45.442;9.212;2023-08-21T12:49:45;10.80;;;7.50;;
70169;SDS011;57543;45.442;9.212;2023-08-21T12:52:49;9.88;;;8.15;;
70169;SDS011;57543;45.442;9.212;2023-08-21T12:55:52;9.90;;;7.90;;
70169;SDS011;57543;45.442;9.212;2023-08-21T12:58:55;9.15;;;7.38;;
70169;SDS011;57543;45.442;9.212;2023-08-21T13:01:59;11.00;;;7.70;;
70169;SDS011;57543;45.442;9.212;2023-08-21T13:05:03;9.90;;;7.72;;
70169;SDS011;57543;45.442;9.212;2023-08-21T13:08:09;10.35;;;7.70;;
70169;SDS011;57543;45.442;9.212;2023-08-21T13:11:13;12.45;;;7.35;;
70169;SDS011;57543;45.442;9.212;2023-08-21T13:14:16;9.57;;;7.57;;
70169;SDS011;57543;45.442;9.212;2023-08-21T13:17:23;12.52;;;7.25;;
70169;SDS011;57543;45.442;9.212;2023-08-21T13:20:26;8.07;;;6.85;;
70169;SDS011;57543;45.442;9.212;2023-08-21T13:23:30;9.00;;;7.53;;
70169;SDS011;57543;45.442;9.212;2023-08-21T13:26:34;9.48;;;7.15;;
70169;SDS011;57543;45.442;9.212;2023-08-21T13:29:38;9.75;;;7.32;;
70169;SDS011;57543;45.442;9.212;2023-08-21T13:32:43;11.13;;;7.20;;
70169;SDS011;57543;45.442;9.212;2023-08-21T13:35:47;8.57;;;6.90;;
70169;SDS011;57543;45.442;9.212;2023-08-21T13:38:51;11.00;;;7.40;;
70169;SDS011;57543;45.442;9.212;2023-08-21T13:41:55;9.00;;;7.18;;
70169;SDS011;57543;45.442;9.212;2023-08-21T13:45:01;10.30;;;7.20;;
70169;SDS011;57543;45.442;9.212;2023-08-21T13:48:06;9.33;;;7.30;;
70169;SDS011;57543;45.442;9.212;2023-08-21T13:51:10;10.60;;;7.55;;
70169;SDS011;57543;45.442;9.212;2023-08-21T13:54:13;10.00;;;7.40;;
70169;SDS011;57543;45.442;9.212;2023-08-21T13:57:20;10.38;;;7.43;;
70169;SDS011;57543;45.442;9.212;2023-08-21T14:00:23;10.25;;;7.07;;
70169;SDS011;57543;45.442;9.212;2023-08-21T14:03:26;9.23;;;7.10;;
70169;SDS011;57543;45.442;9.212;2023-08-21T14:06:30;9.13;;;7.68;;
70169;SDS011;57543;45.442;9.212;2023-08-21T14:09:34;11.93;;;7.88;;
70169;SDS011;57543;45.442;9.212;2023-08-21T14:12:39;9.23;;;8.05;;
70169;SDS011;57543;45.442;9.212;2023-08-21T14:15:43;12.38;;;7.78;;
70169;SDS011;57543;45.442;9.212;2023-08-21T14:18:47;10.47;;;7.77;;
70169;SDS011;57543;45.442;9.212;2023-08-21T14:21:50;10.35;;;7.10;;
70169;SDS011;57543;45.442;9.212;2023-08-21T14:24:54;9.93;;;8.00;;
70169;SDS011;57543;45.442;9.212;2023-08-21T14:27:58;11.07;;;7.55;;
70169;SDS011;57543;45.442;9.212;2023-08-21T14:31:01;11.45;;;8.00;;
70169;SDS011;57543;45.442;9.212;2023-08-21T14:34:04;9.33;;;8.27;;
70169;SDS011;57543;45.442;9.212;2023-08-21T14:37:08;11.57;;;7.70;;
70169;SDS011;57543;45.442;9.212;2023-08-21T14:40:12;9.60;;;7.40;;
70169;SDS011;57543;45.442;9.212;2023-08-21T14:43:16;9.23;;;7.47;;
70169;SDS011;57543;45.442;9.212;2023-08-21T14:46:19;10.23;;;7.68;;
70169;SDS011;57543;45.442;9.212;2023-08-21T14:49:23;8.70;;;7.40;;
70169;SDS011;57543;45.442;9.212;2023-08-21T14:52:26;9.20;;;7.47;;
70169;SDS011;57543;45.442;9.212;2023-08-21T14:55:30;10.25;;;7.40;;
70169;SDS011;57543;45.442;9.212;2023-08-21T14:58:34;8.52;;;7.55;;
70169;SDS011;57543;45.442;9.212;2023-08-21T15:01:38;8.60;;;7.07;;
70169;SDS011;57543;45.442;9.212;2023-08-21T15:04:42;9.35;;;7.10;;
70169;SDS011;57543;45.442;9.212;2023-08-21T15:07:46;10.82;;;7.90;;
70169;SDS011;57543;45.442;9.212;2023-08-21T15:10:50;9.50;;;6.93;;
70169;SDS011;57543;45.442;9.212;2023-08-21T15:13:54;9.63;;;7.35;;
70169;SDS011;57543;45.442;9.212;2023-08-21T15:16:58;9.07;;;7.15;;
70169;SDS011;57543;45.442;9.212;2023-08-21T15:20:02;8.90;;;7.60;;
70169;SDS011;57543;45.442;9.212;2023-08-21T15:23:08;8.32;;;7.18;;
70169;SDS011;57543;45.442;9.212;2023-08-21T15:26:12;11.00;;;7.75;;
70169;SDS011;57543;45.442;9.212;2023-08-21T15:29:16;10.98;;;7.50;;
70169;SDS011;57543;45.442;9.212;2023-08-21T15:32:19;9.27;;;8.18;;
70169;SDS011;57543;45.442;9.212;2023-08-21T15:35:22;10.75;;;7.50;;
70169;SDS011;57543;45.442;9.212;2023-08-21T15:38:26;8.80;;;7.63;;
70169;SDS011;57543;45.442;9.212;2023-08-21T15:41:30;9.60;;;7.80;;
70169;SDS011;57543;45.442;9.212;2023-08-21T15:44:33;9.48;;;7.80;;
70169;SDS011;57543;45.442;9.212;2023-08-21T15:47:36;9.98;;;7.60;;
70169;SDS011;57543;45.442;9.212;2023-08-21T15:50:40;11.02;;;7.55;;
70169;SDS011;57543;45.442;9.212;2023-08-21T15:53:44;11.18;;;8.02;;
70169;SDS011;57543;45.442;9.212;2023-08-21T15:56:48;9.65;;;7.80;;
70169;SDS011;57543;45.442;9.212;2023-08-21T15:59:52;10.30;;;7.90;;
70169;SDS011;57543;45.442;9.212;2023-08-21T16:02:55;11.98;;;7.53;;
70169;SDS011;57543;45.442;9.212;2023-08-21T16:05:59;10.57;;;7.70;;
70169;SDS011;57543;45.442;9.212;2023-08-21T16:09:03;10.30;;;8.10;;
70169;SDS011;57543;45.442;9.212;2023-08-21T16:12:07;10.02;;;7.80;;
70169;SDS011;57543;45.442;9.212;2023-08-21T16:15:10;10.65;;;8.23;;
70169;SDS011;57543;45.442;9.212;2023-08-21T16:18:14;13.88;;;7.93;;
70169;SDS011;57543;45.442;9.212;2023-08-21T16:21:18;10.90;;;8.00;;
70169;SDS011;57543;45.442;9.212;2023-08-21T16:24:21;9.32;;;7.65;;
70169;SDS011;57543;45.442;9.212;2023-08-21T16:27:25;9.45;;;7.57;;
70169;SDS011;57543;45.442;9.212;2023-08-21T16:30:29;8.65;;;7.32;;
70169;SDS011;57543;45.442;9.212;2023-08-21T16:33:33;9.10;;;7.55;;
70169;SDS011;57543;45.442;9.212;2023-08-21T16:36:39;10.67;;;7.60;;
70169;SDS011;57543;45.442;9.212;2023-08-21T16:39:43;9.75;;;7.57;;
70169;SDS011;57543;45.442;9.212;2023-08-21T16:42:47;10.05;;;7.88;;
70169;SDS011;57543;45.442;9.212;2023-08-21T16:45:51;9.65;;;7.68;;
70169;SDS011;57543;45.442;9.212;2023-08-21T16:48:54;9.48;;;7.75;;
70169;SDS011;57543;45.442;9.212;2023-08-21T16:51:58;9.37;;;7.87;;
70169;SDS011;57543;45.442;9.212;2023-08-21T16:55:02;9.77;;;8.00;;
70169;SDS011;57543;45.442;9.212;2023-08-21T16:58:06;14.57;;;8.30;;
70169;SDS011;57543;45.442;9.212;2023-08-21T17:01:10;12.85;;;8.70;;
70169;SDS011;57543;45.442;9.212;2023-08-21T17:04:14;10.43;;;7.25;;
70169;SDS011;57543;45.442;9.212;2023-08-21T17:07:17;11.05;;;8.00;;
70169;SDS011;57543;45.442;9.212;2023-08-21T17:10:24;9.32;;;7.72;;
70169;SDS011;57543;45.442;9.212;2023-08-21T17:13:28;8.80;;;7.50;;
70169;SDS011;57543;45.442;9.212;2023-08-21T17:16:32;10.90;;;8.20;;
70169;SDS011;57543;45.442;9.212;2023-08-21T17:19:35;10.05;;;7.97;;
70169;SDS011;57543;45.442;9.212;2023-08-21T17:22:39;10.52;;;7.63;;
70169;SDS011;57543;45.442;9.212;2023-08-21T17:25:42;10.23;;;7.70;;
70169;SDS011;57543;45.442;9.212;2023-08-21T17:28:45;11.75;;;7.88;;
70169;SDS011;57543;45.442;9.212;2023-08-21T17:31:50;11.80;;;8.25;;
70169;SDS011;57543;45.442;9.212;2023-08-21T17:34:53;9.90;;;7.25;;
70169;SDS011;57543;45.442;9.212;2023-08-21T17:37:57;10.73;;;7.90;;
70169;SDS011;57543;45.442;9.212;2023-08-21T17:41:00;9.30;;;8.15;;
70169;SDS011;57543;45.442;9.212;2023-08-21T17:44:04;9.70;;;7.63;;
70169;SDS011;57543;45.442;9.212;2023-08-21T17:47:07;13.02;;;7.75;;
70169;SDS011;57543;45.442;9.212;2023-08-21T17:50:11;9.55;;;7.80;;
70169;SDS011;57543;45.442;9.212;2023-08-21T17:53:14;10.15;;;7.47;;
70169;SDS011;57543;45.442;9.212;2023-08-21T17:56:18;10.30;;;7.40;;
70169;SDS011;57543;45.442;9.212;2023-08-21T17:59:22;8.98;;;7.43;;
70169;SDS011;57543;45.442;9.212;2023-08-21T18:02:25;11.55;;;7.78;;
70169;SDS011;57543;45.442;9.212;2023-08-21T18:05:29;10.40;;;7.90;;
70169;SDS011;57543;45.442;9.212;2023-08-21T18:08:34;8.88;;;6.93;;
70169;SDS011;57543;45.442;9.212;2023-08-21T18:11:38;8.48;;;7.47;;
70169;SDS011;57543;45.442;9.212;2023-08-21T18:14:42;10.85;;;7.90;;
70169;SDS011;57543;45.442;9.212;2023-08-21T18:17:46;9.68;;;7.78;;